Regional Weather

 

KMKL - Jackson, TN, USA
Distance from station: WNW 50mi, 81km
Updated: Sun, Aug-18-2019 3:53am CDT
Clear
Clear
 Wind from calm
Wind: Calm
Temperature: 70°F , 21°C
Dew Point: 68°F , 20°C
Humidity: 94%
Barometer: 29.94 inHg , 1013.9 hPa
Clouds: Clear
Visibility: 7 miles , 11 km
2019/08/18 08:53 KMKL 180853Z AUTO 00000KT 7SM CLR 21/20 A2994 RMK AO2 SLP132 T02110200 56006
KMEM - Memphis, TN, USA
Distance from station: W 108mi, 173km
Updated: Sun, Aug-18-2019 3:54am CDT
Clear
Clear
 Wind from S
Wind: S 6 mph , 9 km/h
Temperature: 75°F , 24°C
Dew Point: 72°F , 22°C
Humidity: 89%
Barometer: 29.92 inHg , 1013.2 hPa
Clouds: Clear
Visibility: 10 miles , 16 km
2019/08/18 08:54 KMEM 180854Z 17005KT 10SM CLR 24/22 A2992 RMK AO2 SLP125 T02440217 55005
 
KBNA - Nashville, TN, USA
Distance from station: NE 97mi, 157km
Updated: Sun, Aug-18-2019 3:53am CDT
Clear
Clear
 Wind from calm
Wind: Calm
Temperature: 72°F , 22°C
Dew Point: 68°F , 20°C
Humidity: 88%
Barometer: 29.96 inHg , 1014.6 hPa
Clouds: Clear
Visibility: 10 miles , 16 km
2019/08/18 08:53 KBNA 180853Z 00000KT 10SM CLR 22/20 A2996 RMK AO2 SLP136 T02170200 57007
KCKV - Clarksville, TN, USA
Distance from station: NNE 99mi, 159km
Updated: Sun, Aug-18-2019 3:52am CDT
Clear
Clear
 Wind from ESE
Wind: ESE 3 mph , 6 km/h
Temperature: 70°F , 21°C
Dew Point: 70°F , 21°C
Humidity: 100%
Barometer: 29.94 inHg , 1013.9 hPa
Clouds: Clear
Visibility: 7 miles , 11 km
2019/08/18 08:52 KCKV 180852Z AUTO 12003KT 7SM CLR 21/21 A2994 RMK AO2 SLP132 T02110206 55007
 
KPAH - Paducah, KY, USA
Distance from station: NNW 128mi, 205km
Updated: Sun, Aug-18-2019 3:53am CDT
Clear
Clear
 Wind from S
Wind: S 3 mph , 6 km/h
Temperature: 75°F , 24°C
Dew Point: 68°F , 20°C
Humidity: 78%
Barometer: 29.90 inHg , 1012.5 hPa
Clouds: Clear
Visibility: 10 miles , 16 km
2019/08/18 08:53 KPAH 180853Z AUTO 18003KT 10SM CLR 24/20 A2990 RMK AO2 SLP121 T02390200 56009
KCHA - Chattanooga, TN, USA
Distance from station: E 165mi, 265km
Updated: Sun, Aug-18-2019 3:53am CDT
Clear
Clear
 Wind from WSW
Wind: WSW 3 mph , 6 km/h
Temperature: 72°F , 22°C
Dew Point: 68°F , 20°C
Humidity: 88%
Barometer: 29.99 inHg , 1015.6 hPa
Clouds: Clear
Visibility: 10 miles , 16 km
2019/08/18 08:53 KCHA 180853Z AUTO 25003KT 10SM CLR 22/20 A2999 RMK AO2 SLP145 T02220200 56003 $
 
KTYS - Knoxville, TN, USA
Distance from station: E 234mi, 377km
Updated: Sun, Aug-18-2019 3:53am CDT
Clear
Clear
 Wind from N
Wind: N 3 mph , 6 km/h
Temperature: 70°F , 21°C
Dew Point: 66°F , 19°C
Humidity: 88%
Barometer: 29.99 inHg , 1015.6 hPa
Clouds: Clear
Visibility: 10 miles , 16 km
2019/08/18 08:53 KTYS 180853Z 01003KT 10SM CLR 21/19 A2999 RMK AO2 SLP142 T02110189 56003
KLIT - Little Rock, AR, USA
Distance from station: W 240mi, 386km
Updated: Sun, Aug-18-2019 3:53am CDT
Few Clouds
Few Clouds
 Wind from S
Wind: S 6 mph , 9 km/h
Temperature: 73°F , 23°C
Dew Point: 72°F , 22°C
Humidity: 94%
Barometer: 29.89 inHg , 1012.2 hPa
Clouds: Few Clouds
Visibility: 10 miles , 16 km
Cloud details: Few Clouds 20000 ft
2019/08/18 08:53 KLIT 180853Z 18005KT 10SM FEW200 23/22 A2989 RMK AO2 SLP122 T02330217 56004

Refresh Page for latest data.